WEATHER/FLIGHT PLANNING

Hattiesburg Radar

 

 

 

 

Weather Links

Flight Planning Links

 

METAR

2020/05/29 08:53 KHBG 290853Z AUTO 11003KT 10SM BKN026 21/19 A3000 RMK AO2 SLP156 T02060194 50004

TAF

2020/05/29 06:28 TAF KHBG 290526Z 2906/3006 00000KT P6SM SCT050 FM291000 00000KT 6SM BR BKN015 FM291200 00000KT 5SM BR BKN003 FM291300 00000KT P6SM BKN007 FM291400 34005KT P6SM BKN045